sensor_id;sensor_type;location;lat;lon;timestamp;P1;durP1;ratioP1;P2;durP2;ratioP2
12663;SDS011;6396;58.490;15.528;2023-02-28T00:00:51;1.60;;;1.30;;
12663;SDS011;6396;58.490;15.528;2023-02-28T00:03:18;2.17;;;1.70;;
12663;SDS011;6396;58.490;15.528;2023-02-28T00:05:45;2.10;;;1.50;;
12663;SDS011;6396;58.490;15.528;2023-02-28T00:08:12;2.03;;;1.70;;
12663;SDS011;6396;58.490;15.528;2023-02-28T00:10:40;2.00;;;1.70;;
12663;SDS011;6396;58.490;15.528;2023-02-28T00:13:08;1.77;;;1.50;;
12663;SDS011;6396;58.490;15.528;2023-02-28T00:15:36;1.70;;;1.57;;
12663;SDS011;6396;58.490;15.528;2023-02-28T00:18:03;1.93;;;1.50;;
12663;SDS011;6396;58.490;15.528;2023-02-28T00:20:30;1.30;;;1.17;;
12663;SDS011;6396;58.490;15.528;2023-02-28T00:22:58;1.57;;;1.33;;
12663;SDS011;6396;58.490;15.528;2023-02-28T00:25:26;2.70;;;1.40;;
12663;SDS011;6396;58.490;15.528;2023-02-28T00:27:54;1.70;;;1.60;;
12663;SDS011;6396;58.490;15.528;2023-02-28T00:30:23;1.57;;;1.40;;
12663;SDS011;6396;58.490;15.528;2023-02-28T00:32:50;1.53;;;1.43;;
12663;SDS011;6396;58.490;15.528;2023-02-28T00:35:17;1.67;;;1.50;;
12663;SDS011;6396;58.490;15.528;2023-02-28T00:37:44;1.50;;;1.40;;
12663;SDS011;6396;58.490;15.528;2023-02-28T00:40:11;1.70;;;1.60;;
12663;SDS011;6396;58.490;15.528;2023-02-28T00:42:38;1.47;;;1.37;;
12663;SDS011;6396;58.490;15.528;2023-02-28T00:45:06;3.43;;;1.67;;
12663;SDS011;6396;58.490;15.528;2023-02-28T00:47:35;1.50;;;1.40;;
12663;SDS011;6396;58.490;15.528;2023-02-28T00:50:03;1.50;;;1.40;;
12663;SDS011;6396;58.490;15.528;2023-02-28T00:52:30;1.60;;;1.47;;
12663;SDS011;6396;58.490;15.528;2023-02-28T00:54:57;2.43;;;1.60;;
12663;SDS011;6396;58.490;15.528;2023-02-28T00:57:25;1.90;;;1.70;;
12663;SDS011;6396;58.490;15.528;2023-02-28T00:59:52;1.70;;;1.60;;
12663;SDS011;6396;58.490;15.528;2023-02-28T01:02:20;1.50;;;1.40;;
12663;SDS011;6396;58.490;15.528;2023-02-28T01:04:49;2.97;;;1.60;;
12663;SDS011;6396;58.490;15.528;2023-02-28T01:07:16;1.90;;;1.70;;
12663;SDS011;6396;58.490;15.528;2023-02-28T01:09:46;2.30;;;1.60;;
12663;SDS011;6396;58.490;15.528;2023-02-28T01:12:13;1.40;;;1.30;;
12663;SDS011;6396;58.490;15.528;2023-02-28T01:14:40;2.13;;;1.50;;
12663;SDS011;6396;58.490;15.528;2023-02-28T01:17:07;1.97;;;1.53;;
12663;SDS011;6396;58.490;15.528;2023-02-28T01:19:34;2.03;;;1.50;;
12663;SDS011;6396;58.490;15.528;2023-02-28T01:22:03;2.90;;;1.50;;
12663;SDS011;6396;58.490;15.528;2023-02-28T01:24:30;1.43;;;1.30;;
12663;SDS011;6396;58.490;15.528;2023-02-28T01:26:58;1.50;;;1.40;;
12663;SDS011;6396;58.490;15.528;2023-02-28T01:29:25;1.30;;;1.20;;
12663;SDS011;6396;58.490;15.528;2023-02-28T01:31:52;1.50;;;1.40;;
12663;SDS011;6396;58.490;15.528;2023-02-28T01:34:19;1.60;;;1.50;;
12663;SDS011;6396;58.490;15.528;2023-02-28T01:36:46;2.00;;;1.40;;
12663;SDS011;6396;58.490;15.528;2023-02-28T01:39:14;2.67;;;1.20;;
12663;SDS011;6396;58.490;15.528;2023-02-28T01:41:41;3.40;;;1.60;;
12663;SDS011;6396;58.490;15.528;2023-02-28T01:47:08;3.53;;;1.50;;
12663;SDS011;6396;58.490;15.528;2023-02-28T01:49:35;1.50;;;1.40;;
12663;SDS011;6396;58.490;15.528;2023-02-28T01:52:02;1.53;;;1.43;;
12663;SDS011;6396;58.490;15.528;2023-02-28T01:54:31;1.40;;;1.30;;
12663;SDS011;6396;58.490;15.528;2023-02-28T01:57:01;1.77;;;1.40;;
12663;SDS011;6396;58.490;15.528;2023-02-28T01:59:31;2.33;;;1.80;;
12663;SDS011;6396;58.490;15.528;2023-02-28T02:02:03;1.20;;;1.10;;
12663;SDS011;6396;58.490;15.528;2023-02-28T02:04:32;1.60;;;1.50;;
12663;SDS011;6396;58.490;15.528;2023-02-28T02:07:03;2.33;;;1.60;;
12663;SDS011;6396;58.490;15.528;2023-02-28T02:09:32;1.80;;;1.53;;
12663;SDS011;6396;58.490;15.528;2023-02-28T02:11:58;1.53;;;1.30;;
12663;SDS011;6396;58.490;15.528;2023-02-28T02:14:37;1.30;;;1.20;;
12663;SDS011;6396;58.490;15.528;2023-02-28T02:17:18;2.00;;;1.50;;
12663;SDS011;6396;58.490;15.528;2023-02-28T02:29:42;1.77;;;1.40;;
12663;SDS011;6396;58.490;15.528;2023-02-28T02:32:36;1.53;;;1.43;;
12663;SDS011;6396;58.490;15.528;2023-02-28T02:35:30;1.80;;;1.40;;
12663;SDS011;6396;58.490;15.528;2023-02-28T02:38:02;1.60;;;1.30;;
12663;SDS011;6396;58.490;15.528;2023-02-28T02:40:38;1.50;;;1.40;;
12663;SDS011;6396;58.490;15.528;2023-02-28T02:43:13;2.50;;;1.30;;
12663;SDS011;6396;58.490;15.528;2023-02-28T02:45:46;1.70;;;1.33;;
12663;SDS011;6396;58.490;15.528;2023-02-28T02:48:16;1.30;;;1.20;;
12663;SDS011;6396;58.490;15.528;2023-02-28T02:50:48;1.40;;;1.20;;
12663;SDS011;6396;58.490;15.528;2023-02-28T02:53:18;2.27;;;1.50;;
12663;SDS011;6396;58.490;15.528;2023-02-28T02:55:50;1.57;;;1.40;;
12663;SDS011;6396;58.490;15.528;2023-02-28T02:58:20;1.90;;;1.40;;
12663;SDS011;6396;58.490;15.528;2023-02-28T03:00:51;1.63;;;1.47;;
12663;SDS011;6396;58.490;15.528;2023-02-28T03:03:22;1.50;;;1.27;;
12663;SDS011;6396;58.490;15.528;2023-02-28T03:05:56;1.70;;;1.30;;
12663;SDS011;6396;58.490;15.528;2023-02-28T03:08:24;1.57;;;1.27;;
12663;SDS011;6396;58.490;15.528;2023-02-28T03:10:51;1.07;;;0.97;;
12663;SDS011;6396;58.490;15.528;2023-02-28T03:13:35;1.23;;;1.13;;
12663;SDS011;6396;58.490;15.528;2023-02-28T03:19:01;1.57;;;1.30;;
12663;SDS011;6396;58.490;15.528;2023-02-28T03:21:40;1.70;;;1.30;;
12663;SDS011;6396;58.490;15.528;2023-02-28T03:24:11;1.73;;;1.13;;
12663;SDS011;6396;58.490;15.528;2023-02-28T03:26:45;2.10;;;1.10;;
12663;SDS011;6396;58.490;15.528;2023-02-28T03:29:20;1.20;;;1.10;;
12663;SDS011;6396;58.490;15.528;2023-02-28T03:31:52;1.43;;;1.30;;
12663;SDS011;6396;58.490;15.528;2023-02-28T03:34:26;2.50;;;1.30;;
12663;SDS011;6396;58.490;15.528;2023-02-28T03:37:01;1.80;;;1.27;;
12663;SDS011;6396;58.490;15.528;2023-02-28T03:39:31;2.07;;;1.60;;
12663;SDS011;6396;58.490;15.528;2023-02-28T03:42:04;2.07;;;1.40;;
12663;SDS011;6396;58.490;15.528;2023-02-28T03:44:35;1.80;;;1.40;;
12663;SDS011;6396;58.490;15.528;2023-02-28T03:47:06;1.57;;;1.40;;
12663;SDS011;6396;58.490;15.528;2023-02-28T03:49:36;2.27;;;1.30;;
12663;SDS011;6396;58.490;15.528;2023-02-28T03:52:09;1.97;;;1.60;;
12663;SDS011;6396;58.490;15.528;2023-02-28T03:54:38;2.80;;;1.27;;
12663;SDS011;6396;58.490;15.528;2023-02-28T03:57:10;1.40;;;1.30;;
12663;SDS011;6396;58.490;15.528;2023-02-28T03:59:43;1.30;;;1.20;;
12663;SDS011;6396;58.490;15.528;2023-02-28T04:02:12;1.07;;;1.00;;
12663;SDS011;6396;58.490;15.528;2023-02-28T04:04:39;1.23;;;1.10;;
12663;SDS011;6396;58.490;15.528;2023-02-28T04:07:14;1.43;;;1.20;;
12663;SDS011;6396;58.490;15.528;2023-02-28T04:09:42;1.57;;;1.10;;
12663;SDS011;6396;58.490;15.528;2023-02-28T04:12:09;1.30;;;1.20;;
12663;SDS011;6396;58.490;15.528;2023-02-28T04:14:36;1.30;;;1.20;;
12663;SDS011;6396;58.490;15.528;2023-02-28T04:17:03;2.40;;;1.40;;
12663;SDS011;6396;58.490;15.528;2023-02-28T04:19:30;1.27;;;1.17;;
12663;SDS011;6396;58.490;15.528;2023-02-28T04:21:57;1.63;;;1.40;;
12663;SDS011;6396;58.490;15.528;2023-02-28T04:24:26;1.63;;;1.27;;
12663;SDS011;6396;58.490;15.528;2023-02-28T04:26:54;3.37;;;1.40;;
12663;SDS011;6396;58.490;15.528;2023-02-28T04:29:23;1.37;;;1.27;;
12663;SDS011;6396;58.490;15.528;2023-02-28T04:31:52;2.93;;;1.30;;
12663;SDS011;6396;58.490;15.528;2023-02-28T04:34:19;2.17;;;1.30;;
12663;SDS011;6396;58.490;15.528;2023-02-28T04:36:46;1.30;;;1.20;;
12663;SDS011;6396;58.490;15.528;2023-02-28T04:39:15;1.77;;;1.53;;
12663;SDS011;6396;58.490;15.528;2023-02-28T04:41:44;1.20;;;1.10;;
12663;SDS011;6396;58.490;15.528;2023-02-28T04:44:11;1.70;;;1.30;;
12663;SDS011;6396;58.490;15.528;2023-02-28T04:46:38;1.40;;;1.20;;
12663;SDS011;6396;58.490;15.528;2023-02-28T04:49:05;1.87;;;1.47;;
12663;SDS011;6396;58.490;15.528;2023-02-28T04:51:32;2.37;;;1.33;;
12663;SDS011;6396;58.490;15.528;2023-02-28T04:53:59;1.33;;;1.23;;
12663;SDS011;6396;58.490;15.528;2023-02-28T04:56:25;1.37;;;1.27;;
12663;SDS011;6396;58.490;15.528;2023-02-28T04:58:54;1.20;;;1.10;;
12663;SDS011;6396;58.490;15.528;2023-02-28T05:01:21;1.40;;;1.30;;
12663;SDS011;6396;58.490;15.528;2023-02-28T05:03:51;1.33;;;1.20;;
12663;SDS011;6396;58.490;15.528;2023-02-28T05:06:20;1.60;;;1.47;;
12663;SDS011;6396;58.490;15.528;2023-02-28T05:08:48;1.60;;;1.27;;
12663;SDS011;6396;58.490;15.528;2023-02-28T05:11:16;1.50;;;1.27;;
12663;SDS011;6396;58.490;15.528;2023-02-28T05:13:44;1.47;;;1.27;;
12663;SDS011;6396;58.490;15.528;2023-02-28T05:16:13;1.67;;;1.57;;
12663;SDS011;6396;58.490;15.528;2023-02-28T05:18:40;1.97;;;1.13;;
12663;SDS011;6396;58.490;15.528;2023-02-28T05:21:12;1.37;;;1.20;;
12663;SDS011;6396;58.490;15.528;2023-02-28T05:23:51;1.53;;;1.27;;
12663;SDS011;6396;58.490;15.528;2023-02-28T05:26:18;1.93;;;1.37;;
12663;SDS011;6396;58.490;15.528;2023-02-28T05:28:45;2.00;;;1.23;;
12663;SDS011;6396;58.490;15.528;2023-02-28T05:31:13;3.57;;;1.27;;
12663;SDS011;6396;58.490;15.528;2023-02-28T05:33:40;1.60;;;1.10;;
12663;SDS011;6396;58.490;15.528;2023-02-28T05:36:07;1.80;;;1.10;;
12663;SDS011;6396;58.490;15.528;2023-02-28T05:38:34;1.40;;;1.30;;
12663;SDS011;6396;58.490;15.528;2023-02-28T05:41:04;2.67;;;1.30;;
12663;SDS011;6396;58.490;15.528;2023-02-28T05:43:32;2.50;;;1.40;;
12663;SDS011;6396;58.490;15.528;2023-02-28T05:45:59;2.93;;;1.53;;
12663;SDS011;6396;58.490;15.528;2023-02-28T05:48:29;1.40;;;1.20;;
12663;SDS011;6396;58.490;15.528;2023-02-28T05:50:57;1.50;;;1.40;;
12663;SDS011;6396;58.490;15.528;2023-02-28T05:53:24;1.40;;;1.30;;
12663;SDS011;6396;58.490;15.528;2023-02-28T05:55:51;1.93;;;1.37;;
12663;SDS011;6396;58.490;15.528;2023-02-28T05:58:18;1.37;;;1.27;;
12663;SDS011;6396;58.490;15.528;2023-02-28T06:00:45;3.50;;;1.53;;
12663;SDS011;6396;58.490;15.528;2023-02-28T06:03:14;3.17;;;1.50;;
12663;SDS011;6396;58.490;15.528;2023-02-28T06:05:46;2.50;;;1.60;;
12663;SDS011;6396;58.490;15.528;2023-02-28T06:08:15;2.30;;;1.60;;
12663;SDS011;6396;58.490;15.528;2023-02-28T06:10:43;3.10;;;1.90;;
12663;SDS011;6396;58.490;15.528;2023-02-28T06:13:10;1.60;;;1.50;;
12663;SDS011;6396;58.490;15.528;2023-02-28T06:15:40;4.03;;;1.67;;
12663;SDS011;6396;58.490;15.528;2023-02-28T06:18:07;2.53;;;1.53;;
12663;SDS011;6396;58.490;15.528;2023-02-28T06:20:34;2.13;;;1.63;;
12663;SDS011;6396;58.490;15.528;2023-02-28T06:23:02;2.20;;;1.47;;
12663;SDS011;6396;58.490;15.528;2023-02-28T06:25:29;2.60;;;1.60;;
12663;SDS011;6396;58.490;15.528;2023-02-28T06:27:56;2.00;;;1.50;;
12663;SDS011;6396;58.490;15.528;2023-02-28T06:30:25;1.70;;;1.50;;
12663;SDS011;6396;58.490;15.528;2023-02-28T06:32:56;2.03;;;1.70;;
12663;SDS011;6396;58.490;15.528;2023-02-28T06:35:23;3.07;;;1.63;;
12663;SDS011;6396;58.490;15.528;2023-02-28T06:37:49;2.60;;;1.70;;
12663;SDS011;6396;58.490;15.528;2023-02-28T06:40:18;2.73;;;1.80;;
12663;SDS011;6396;58.490;15.528;2023-02-28T06:42:45;2.23;;;1.70;;
12663;SDS011;6396;58.490;15.528;2023-02-28T06:45:11;3.10;;;1.83;;
12663;SDS011;6396;58.490;15.528;2023-02-28T06:47:39;2.63;;;1.80;;
12663;SDS011;6396;58.490;15.528;2023-02-28T06:50:09;3.40;;;2.43;;
12663;SDS011;6396;58.490;15.528;2023-02-28T06:52:37;3.43;;;1.97;;
12663;SDS011;6396;58.490;15.528;2023-02-28T06:55:04;5.57;;;2.30;;
12663;SDS011;6396;58.490;15.528;2023-02-28T06:57:34;4.80;;;2.20;;
12663;SDS011;6396;58.490;15.528;2023-02-28T07:00:03;2.70;;;2.17;;
12663;SDS011;6396;58.490;15.528;2023-02-28T07:02:32;3.93;;;2.33;;
12663;SDS011;6396;58.490;15.528;2023-02-28T07:04:59;2.73;;;1.87;;
12663;SDS011;6396;58.490;15.528;2023-02-28T07:07:26;2.90;;;2.00;;
12663;SDS011;6396;58.490;15.528;2023-02-28T07:09:53;2.83;;;1.93;;
12663;SDS011;6396;58.490;15.528;2023-02-28T07:12:20;3.20;;;2.13;;
12663;SDS011;6396;58.490;15.528;2023-02-28T07:14:48;2.67;;;2.27;;
12663;SDS011;6396;58.490;15.528;2023-02-28T07:17:15;2.37;;;1.97;;
12663;SDS011;6396;58.490;15.528;2023-02-28T07:19:42;3.83;;;2.13;;
12663;SDS011;6396;58.490;15.528;2023-02-28T07:22:09;5.43;;;2.57;;
12663;SDS011;6396;58.490;15.528;2023-02-28T07:24:35;2.93;;;2.07;;
12663;SDS011;6396;58.490;15.528;2023-02-28T07:27:03;3.60;;;2.00;;
12663;SDS011;6396;58.490;15.528;2023-02-28T07:29:30;4.27;;;2.00;;
12663;SDS011;6396;58.490;15.528;2023-02-28T07:32:11;3.50;;;1.90;;
12663;SDS011;6396;58.490;15.528;2023-02-28T07:34:40;2.83;;;2.30;;
12663;SDS011;6396;58.490;15.528;2023-02-28T07:37:10;3.03;;;2.10;;
12663;SDS011;6396;58.490;15.528;2023-02-28T07:40:23;2.70;;;1.83;;
12663;SDS011;6396;58.490;15.528;2023-02-28T07:43:06;2.50;;;2.00;;
12663;SDS011;6396;58.490;15.528;2023-02-28T07:45:33;2.13;;;1.70;;
12663;SDS011;6396;58.490;15.528;2023-02-28T07:48:02;2.63;;;1.87;;
12663;SDS011;6396;58.490;15.528;2023-02-28T07:50:29;3.83;;;2.00;;
12663;SDS011;6396;58.490;15.528;2023-02-28T07:53:19;3.37;;;1.87;;
12663;SDS011;6396;58.490;15.528;2023-02-28T07:55:54;2.30;;;1.90;;
12663;SDS011;6396;58.490;15.528;2023-02-28T07:58:22;1.83;;;1.70;;
12663;SDS011;6396;58.490;15.528;2023-02-28T08:01:04;1.67;;;1.57;;
12663;SDS011;6396;58.490;15.528;2023-02-28T08:03:48;1.77;;;1.50;;
12663;SDS011;6396;58.490;15.528;2023-02-28T08:06:16;1.90;;;1.60;;
12663;SDS011;6396;58.490;15.528;2023-02-28T08:08:48;1.63;;;1.40;;
12663;SDS011;6396;58.490;15.528;2023-02-28T08:11:15;2.80;;;1.40;;
12663;SDS011;6396;58.490;15.528;2023-02-28T08:13:46;1.57;;;1.33;;
12663;SDS011;6396;58.490;15.528;2023-02-28T08:16:13;2.50;;;1.50;;
12663;SDS011;6396;58.490;15.528;2023-02-28T08:18:47;1.40;;;1.30;;
12663;SDS011;6396;58.490;15.528;2023-02-28T08:21:15;2.17;;;1.60;;
12663;SDS011;6396;58.490;15.528;2023-02-28T08:23:42;2.20;;;1.30;;
12663;SDS011;6396;58.490;15.528;2023-02-28T08:26:09;1.53;;;1.20;;
12663;SDS011;6396;58.490;15.528;2023-02-28T08:28:36;4.23;;;1.70;;
12663;SDS011;6396;58.490;15.528;2023-02-28T08:31:06;1.33;;;1.23;;
12663;SDS011;6396;58.490;15.528;2023-02-28T08:33:34;1.53;;;1.10;;
12663;SDS011;6396;58.490;15.528;2023-02-28T08:36:06;1.27;;;1.17;;
12663;SDS011;6396;58.490;15.528;2023-02-28T08:38:34;1.43;;;1.17;;
12663;SDS011;6396;58.490;15.528;2023-02-28T08:41:04;1.17;;;1.07;;
12663;SDS011;6396;58.490;15.528;2023-02-28T08:43:34;1.00;;;1.00;;
12663;SDS011;6396;58.490;15.528;2023-02-28T08:46:06;1.10;;;1.00;;
12663;SDS011;6396;58.490;15.528;2023-02-28T08:48:34;1.20;;;1.10;;
12663;SDS011;6396;58.490;15.528;2023-02-28T08:51:06;1.40;;;1.10;;
12663;SDS011;6396;58.490;15.528;2023-02-28T08:53:35;1.37;;;1.10;;
12663;SDS011;6396;58.490;15.528;2023-02-28T08:56:03;0.90;;;0.90;;
12663;SDS011;6396;58.490;15.528;2023-02-28T08:58:32;0.90;;;0.90;;
12663;SDS011;6396;58.490;15.528;2023-02-28T09:01:08;0.97;;;0.90;;
12663;SDS011;6396;58.490;15.528;2023-02-28T09:03:40;0.90;;;0.90;;
12663;SDS011;6396;58.490;15.528;2023-02-28T09:06:10;1.10;;;1.00;;
12663;SDS011;6396;58.490;15.528;2023-02-28T09:08:42;0.80;;;0.80;;
12663;SDS011;6396;58.490;15.528;2023-02-28T09:11:10;1.10;;;0.90;;
12663;SDS011;6396;58.490;15.528;2023-02-28T09:13:51;0.87;;;0.87;;
12663;SDS011;6396;58.490;15.528;2023-02-28T09:16:22;0.80;;;0.80;;
12663;SDS011;6396;58.490;15.528;2023-02-28T09:18:52;0.80;;;0.80;;
12663;SDS011;6396;58.490;15.528;2023-02-28T09:21:21;0.80;;;0.70;;
12663;SDS011;6396;58.490;15.528;2023-02-28T09:23:49;1.20;;;1.20;;
12663;SDS011;6396;58.490;15.528;2023-02-28T09:26:20;0.77;;;0.77;;
12663;SDS011;6396;58.490;15.528;2023-02-28T09:28:52;0.70;;;0.70;;
12663;SDS011;6396;58.490;15.528;2023-02-28T09:35:10;0.87;;;0.70;;
12663;SDS011;6396;58.490;15.528;2023-02-28T09:53:58;2.00;;;0.90;;
12663;SDS011;6396;58.490;15.528;2023-02-28T09:57:08;0.90;;;0.80;;
12663;SDS011;6396;58.490;15.528;2023-02-28T10:05:17;0.70;;;0.70;;
12663;SDS011;6396;58.490;15.528;2023-02-28T10:07:56;1.47;;;0.80;;
12663;SDS011;6396;58.490;15.528;2023-02-28T10:10:32;0.60;;;0.60;;
12663;SDS011;6396;58.490;15.528;2023-02-28T10:13:05;1.60;;;0.87;;
12663;SDS011;6396;58.490;15.528;2023-02-28T10:15:38;2.87;;;0.80;;
12663;SDS011;6396;58.490;15.528;2023-02-28T10:18:06;0.97;;;0.77;;
12663;SDS011;6396;58.490;15.528;2023-02-28T10:20:42;4.27;;;1.00;;
12663;SDS011;6396;58.490;15.528;2023-02-28T10:23:11;2.50;;;0.80;;
12663;SDS011;6396;58.490;15.528;2023-02-28T10:25:43;0.87;;;0.80;;
12663;SDS011;6396;58.490;15.528;2023-02-28T10:28:14;0.70;;;0.70;;
12663;SDS011;6396;58.490;15.528;2023-02-28T10:51:34;2.70;;;0.60;;
12663;SDS011;6396;58.490;15.528;2023-02-28T10:54:05;1.43;;;0.70;;
12663;SDS011;6396;58.490;15.528;2023-02-28T10:56:32;4.20;;;1.13;;
12663;SDS011;6396;58.490;15.528;2023-02-28T10:59:00;2.33;;;0.80;;
12663;SDS011;6396;58.490;15.528;2023-02-28T11:01:35;2.87;;;0.90;;
12663;SDS011;6396;58.490;15.528;2023-02-28T11:04:03;0.70;;;0.70;;
12663;SDS011;6396;58.490;15.528;2023-02-28T11:06:51;2.37;;;0.80;;
12663;SDS011;6396;58.490;15.528;2023-02-28T11:09:27;2.43;;;1.00;;
12663;SDS011;6396;58.490;15.528;2023-02-28T11:11:58;0.80;;;0.80;;
12663;SDS011;6396;58.490;15.528;2023-02-28T11:14:27;1.47;;;0.70;;
12663;SDS011;6396;58.490;15.528;2023-02-28T11:16:56;1.90;;;0.80;;
12663;SDS011;6396;58.490;15.528;2023-02-28T11:19:29;2.67;;;0.80;;
12663;SDS011;6396;58.490;15.528;2023-02-28T11:22:02;0.90;;;0.60;;
12663;SDS011;6396;58.490;15.528;2023-02-28T11:24:36;1.27;;;0.70;;
12663;SDS011;6396;58.490;15.528;2023-02-28T11:27:13;1.53;;;0.80;;
12663;SDS011;6396;58.490;15.528;2023-02-28T11:29:51;1.17;;;0.60;;
12663;SDS011;6396;58.490;15.528;2023-02-28T11:32:21;0.77;;;0.70;;
12663;SDS011;6396;58.490;15.528;2023-02-28T11:35:02;2.27;;;0.70;;
12663;SDS011;6396;58.490;15.528;2023-02-28T11:37:40;1.60;;;0.77;;
12663;SDS011;6396;58.490;15.528;2023-02-28T11:40:18;1.23;;;0.70;;
12663;SDS011;6396;58.490;15.528;2023-02-28T11:42:54;0.53;;;0.53;;
12663;SDS011;6396;58.490;15.528;2023-02-28T11:45:37;0.70;;;0.70;;
12663;SDS011;6396;58.490;15.528;2023-02-28T11:48:14;0.60;;;0.60;;
12663;SDS011;6396;58.490;15.528;2023-02-28T11:50:53;1.83;;;0.80;;
12663;SDS011;6396;58.490;15.528;2023-02-28T11:53:43;0.67;;;0.67;;
12663;SDS011;6396;58.490;15.528;2023-02-28T11:56:23;0.60;;;0.60;;
12663;SDS011;6396;58.490;15.528;2023-02-28T11:58:55;5.77;;;0.90;;
12663;SDS011;6396;58.490;15.528;2023-02-28T12:01:38;4.13;;;0.80;;
12663;SDS011;6396;58.490;15.528;2023-02-28T12:04:21;1.30;;;0.70;;
12663;SDS011;6396;58.490;15.528;2023-02-28T12:06:57;1.37;;;0.80;;
12663;SDS011;6396;58.490;15.528;2023-02-28T12:09:34;1.13;;;0.73;;
12663;SDS011;6396;58.490;15.528;2023-02-28T12:12:15;2.43;;;0.80;;
12663;SDS011;6396;58.490;15.528;2023-02-28T12:14:54;1.30;;;0.87;;
12663;SDS011;6396;58.490;15.528;2023-02-28T12:17:38;0.60;;;0.60;;
12663;SDS011;6396;58.490;15.528;2023-02-28T12:20:17;2.60;;;0.70;;
12663;SDS011;6396;58.490;15.528;2023-02-28T12:22:54;3.17;;;1.10;;
12663;SDS011;6396;58.490;15.528;2023-02-28T12:28:31;1.57;;;0.80;;
12663;SDS011;6396;58.490;15.528;2023-02-28T12:31:04;1.17;;;0.90;;
12663;SDS011;6396;58.490;15.528;2023-02-28T12:33:39;0.80;;;0.80;;
12663;SDS011;6396;58.490;15.528;2023-02-28T12:36:22;1.20;;;1.03;;
12663;SDS011;6396;58.490;15.528;2023-02-28T12:38:52;2.47;;;1.27;;
12663;SDS011;6396;58.490;15.528;2023-02-28T12:41:25;2.00;;;1.30;;
12663;SDS011;6396;58.490;15.528;2023-02-28T12:44:02;2.53;;;1.40;;
12663;SDS011;6396;58.490;15.528;2023-02-28T12:46:34;2.30;;;1.40;;
12663;SDS011;6396;58.490;15.528;2023-02-28T12:49:05;3.27;;;1.33;;
12663;SDS011;6396;58.490;15.528;2023-02-28T12:51:36;1.70;;;1.27;;
12663;SDS011;6396;58.490;15.528;2023-02-28T12:54:07;1.33;;;1.10;;
12663;SDS011;6396;58.490;15.528;2023-02-28T12:56:41;3.60;;;1.10;;
12663;SDS011;6396;58.490;15.528;2023-02-28T12:59:17;2.27;;;1.30;;
12663;SDS011;6396;58.490;15.528;2023-02-28T13:11:22;6.60;;;1.47;;
12663;SDS011;6396;58.490;15.528;2023-02-28T13:13:56;1.43;;;1.30;;
12663;SDS011;6396;58.490;15.528;2023-02-28T13:16:26;2.13;;;1.20;;
12663;SDS011;6396;58.490;15.528;2023-02-28T13:18:53;1.80;;;1.37;;
12663;SDS011;6396;58.490;15.528;2023-02-28T13:21:41;2.10;;;1.37;;
12663;SDS011;6396;58.490;15.528;2023-02-28T13:24:10;1.13;;;1.03;;
12663;SDS011;6396;58.490;15.528;2023-02-28T13:27:20;2.20;;;1.17;;
12663;SDS011;6396;58.490;15.528;2023-02-28T13:33:23;2.23;;;1.20;;
12663;SDS011;6396;58.490;15.528;2023-02-28T13:36:01;1.37;;;1.20;;
12663;SDS011;6396;58.490;15.528;2023-02-28T13:38:35;3.23;;;1.20;;
12663;SDS011;6396;58.490;15.528;2023-02-28T13:44:22;7.00;;;1.93;;
12663;SDS011;6396;58.490;15.528;2023-02-28T13:49:49;2.27;;;1.20;;
12663;SDS011;6396;58.490;15.528;2023-02-28T13:52:18;2.97;;;1.20;;
12663;SDS011;6396;58.490;15.528;2023-02-28T13:54:54;3.57;;;1.47;;
12663;SDS011;6396;58.490;15.528;2023-02-28T13:57:30;2.40;;;1.27;;
12663;SDS011;6396;58.490;15.528;2023-02-28T14:00:14;2.03;;;1.10;;
12663;SDS011;6396;58.490;15.528;2023-02-28T14:02:54;1.67;;;1.17;;
12663;SDS011;6396;58.490;15.528;2023-02-28T14:05:34;1.77;;;1.00;;
12663;SDS011;6396;58.490;15.528;2023-02-28T14:08:04;3.97;;;1.27;;
12663;SDS011;6396;58.490;15.528;2023-02-28T14:10:40;1.70;;;1.30;;
12663;SDS011;6396;58.490;15.528;2023-02-28T14:16:11;3.70;;;1.47;;
12663;SDS011;6396;58.490;15.528;2023-02-28T14:18:40;3.50;;;1.47;;
12663;SDS011;6396;58.490;15.528;2023-02-28T14:21:14;2.57;;;1.33;;
12663;SDS011;6396;58.490;15.528;2023-02-28T14:26:53;1.60;;;1.10;;
12663;SDS011;6396;58.490;15.528;2023-02-28T14:29:30;3.23;;;1.40;;
12663;SDS011;6396;58.490;15.528;2023-02-28T14:32:28;5.90;;;1.43;;
12663;SDS011;6396;58.490;15.528;2023-02-28T14:35:03;1.90;;;1.40;;
12663;SDS011;6396;58.490;15.528;2023-02-28T14:37:39;1.20;;;1.10;;
12663;SDS011;6396;58.490;15.528;2023-02-28T14:40:12;2.93;;;1.20;;
12663;SDS011;6396;58.490;15.528;2023-02-28T14:42:45;3.00;;;1.20;;
12663;SDS011;6396;58.490;15.528;2023-02-28T14:45:18;2.07;;;1.00;;
12663;SDS011;6396;58.490;15.528;2023-02-28T14:47:58;1.57;;;1.17;;
12663;SDS011;6396;58.490;15.528;2023-02-28T14:50:27;2.20;;;1.33;;
12663;SDS011;6396;58.490;15.528;2023-02-28T14:52:57;2.27;;;1.43;;
12663;SDS011;6396;58.490;15.528;2023-02-28T14:55:25;2.10;;;1.30;;
12663;SDS011;6396;58.490;15.528;2023-02-28T14:57:56;1.97;;;1.20;;
12663;SDS011;6396;58.490;15.528;2023-02-28T15:00:25;1.33;;;1.07;;
12663;SDS011;6396;58.490;15.528;2023-02-28T15:02:53;1.40;;;1.10;;
12663;SDS011;6396;58.490;15.528;2023-02-28T15:05:26;3.37;;;1.00;;
12663;SDS011;6396;58.490;15.528;2023-02-28T15:08:05;0.80;;;0.80;;
12663;SDS011;6396;58.490;15.528;2023-02-28T15:10:36;2.67;;;1.30;;
12663;SDS011;6396;58.490;15.528;2023-02-28T15:13:06;1.10;;;1.00;;
12663;SDS011;6396;58.490;15.528;2023-02-28T15:15:40;1.27;;;1.10;;
12663;SDS011;6396;58.490;15.528;2023-02-28T15:18:12;1.47;;;1.33;;
12663;SDS011;6396;58.490;15.528;2023-02-28T15:20:49;1.77;;;1.00;;
12663;SDS011;6396;58.490;15.528;2023-02-28T15:23:17;1.63;;;1.30;;
12663;SDS011;6396;58.490;15.528;2023-02-28T15:25:46;1.27;;;0.97;;
12663;SDS011;6396;58.490;15.528;2023-02-28T15:28:15;2.80;;;1.20;;
12663;SDS011;6396;58.490;15.528;2023-02-28T15:30:56;1.90;;;1.10;;
12663;SDS011;6396;58.490;15.528;2023-02-28T15:33:24;2.50;;;1.30;;
12663;SDS011;6396;58.490;15.528;2023-02-28T15:36:04;2.13;;;1.10;;
12663;SDS011;6396;58.490;15.528;2023-02-28T15:38:33;1.40;;;1.10;;
12663;SDS011;6396;58.490;15.528;2023-02-28T15:41:02;2.47;;;1.20;;
12663;SDS011;6396;58.490;15.528;2023-02-28T15:43:33;1.57;;;0.80;;
12663;SDS011;6396;58.490;15.528;2023-02-28T15:46:02;3.57;;;1.20;;
12663;SDS011;6396;58.490;15.528;2023-02-28T15:48:32;2.60;;;0.90;;
12663;SDS011;6396;58.490;15.528;2023-02-28T15:51:05;1.77;;;1.00;;
12663;SDS011;6396;58.490;15.528;2023-02-28T15:53:36;3.40;;;1.10;;
12663;SDS011;6396;58.490;15.528;2023-02-28T15:56:12;2.13;;;1.03;;
12663;SDS011;6396;58.490;15.528;2023-02-28T15:58:48;2.00;;;1.40;;
12663;SDS011;6396;58.490;15.528;2023-02-28T16:01:19;0.80;;;0.80;;
12663;SDS011;6396;58.490;15.528;2023-02-28T16:03:51;5.27;;;1.33;;
12663;SDS011;6396;58.490;15.528;2023-02-28T16:06:31;4.20;;;1.40;;
12663;SDS011;6396;58.490;15.528;2023-02-28T16:09:00;1.67;;;1.10;;
12663;SDS011;6396;58.490;15.528;2023-02-28T16:11:27;1.10;;;1.00;;
12663;SDS011;6396;58.490;15.528;2023-02-28T16:13:55;3.33;;;0.90;;
12663;SDS011;6396;58.490;15.528;2023-02-28T16:16:23;1.40;;;1.17;;
12663;SDS011;6396;58.490;15.528;2023-02-28T16:18:52;1.90;;;0.93;;
12663;SDS011;6396;58.490;15.528;2023-02-28T16:21:19;1.67;;;0.80;;
12663;SDS011;6396;58.490;15.528;2023-02-28T16:23:49;1.70;;;0.93;;
12663;SDS011;6396;58.490;15.528;2023-02-28T16:26:18;3.30;;;1.40;;
12663;SDS011;6396;58.490;15.528;2023-02-28T16:28:48;4.40;;;1.67;;
12663;SDS011;6396;58.490;15.528;2023-02-28T16:31:16;2.87;;;1.80;;
12663;SDS011;6396;58.490;15.528;2023-02-28T16:33:43;2.77;;;1.40;;
12663;SDS011;6396;58.490;15.528;2023-02-28T16:36:14;1.70;;;1.30;;
12663;SDS011;6396;58.490;15.528;2023-02-28T16:38:42;1.97;;;1.30;;
12663;SDS011;6396;58.490;15.528;2023-02-28T16:41:11;1.87;;;1.10;;
12663;SDS011;6396;58.490;15.528;2023-02-28T16:43:44;1.47;;;1.10;;